Time;durP1;ratioP1;P1;durP2;ratioP2;P2;SDS_P1;SDS_P2;PMS_P1;PMS_P2;Temp;Humidity;BMP_temperature;BMP_pressure;BME280_temperature;BME280_humidity;BME280_pressure;Samples;Min_cycle;Max_cycle;Signal;HPM_P1;HPM_P2
2024/01/16 00:00:45;;;;;;;3.90;2.93;;;-0.80;99.90;;;;;;5088392;28;20710;-82
2024/01/16 00:03:11;;;;;;;7.43;2.70;;;-0.80;99.90;;;;;;5091290;27;20245;-82
2024/01/16 00:05:39;;;;;;;4.10;2.60;;;-0.80;99.90;;;;;;5100074;27;20227;-82
2024/01/16 00:08:06;;;;;;;5.73;2.50;;;-0.80;99.90;;;;;;5079250;27;20314;-82
2024/01/16 00:10:32;;;;;;;5.43;2.60;;;-0.80;99.90;;;;;;5076061;28;20240;-82
2024/01/16 00:12:59;;;;;;;4.43;2.80;;;-0.80;99.90;;;;;;5078609;28;20313;-82
2024/01/16 00:15:26;;;;;;;10.73;2.93;;;-0.80;99.90;;;;;;5087635;28;20242;-83
2024/01/16 00:17:53;;;;;;;4.27;3.03;;;-0.80;99.90;;;;;;5123520;27;20269;-83
2024/01/16 00:20:21;;;;;;;6.87;3.20;;;-0.80;99.90;;;;;;5075773;27;20226;-84
2024/01/16 00:22:50;;;;;;;3.13;2.73;;;-0.80;99.90;;;;;;5075832;28;20234;-84
2024/01/16 00:25:19;;;;;;;4.43;2.60;;;-0.80;99.90;;;;;;5078384;27;20910;-83
2024/01/16 00:27:46;;;;;;;4.67;2.73;;;-0.90;99.90;;;;;;5091184;27;20238;-83
2024/01/16 00:30:14;;;;;;;5.27;3.00;;;-0.90;99.90;;;;;;5073630;28;20762;-83
2024/01/16 00:32:41;;;;;;;4.60;2.97;;;-0.90;99.90;;;;;;5085317;28;20257;-83
2024/01/16 00:35:08;;;;;;;7.03;2.93;;;-0.90;99.90;;;;;;5079786;28;20227;-83
2024/01/16 00:37:36;;;;;;;4.83;3.00;;;-0.90;99.90;;;;;;5112185;27;20305;-83
2024/01/16 00:40:05;;;;;;;4.50;2.93;;;-0.90;99.90;;;;;;5079477;28;20295;-83
2024/01/16 00:42:32;;;;;;;4.03;2.70;;;-0.90;99.90;;;;;;5080206;28;20214;-82
2024/01/16 00:44:59;;;;;;;4.20;2.90;;;-0.90;99.90;;;;;;5119620;27;20223;-82
2024/01/16 00:47:26;;;;;;;4.63;2.70;;;-0.90;99.90;;;;;;5082125;28;20242;-83
2024/01/16 00:49:52;;;;;;;6.47;2.90;;;-0.90;99.90;;;;;;5086916;28;20332;-83
2024/01/16 00:52:19;;;;;;;5.50;3.00;;;-0.90;99.90;;;;;;5075957;28;20245;-84
2024/01/16 00:54:46;;;;;;;6.47;3.10;;;-0.80;99.90;;;;;;5092009;28;20790;-83
2024/01/16 00:57:16;;;;;;;4.63;3.30;;;-0.90;99.90;;;;;;5081386;28;20924;-83
2024/01/16 00:59:42;;;;;;;4.90;3.20;;;-0.90;99.90;;;;;;5108435;27;20255;-82
2024/01/16 01:02:09;;;;;;;3.40;3.10;;;-0.90;99.90;;;;;;5076458;28;20224;-83
2024/01/16 01:04:36;;;;;;;5.63;3.70;;;-0.80;99.90;;;;;;5069857;28;20230;-83
2024/01/16 01:07:03;;;;;;;3.83;3.47;;;-0.80;99.90;;;;;;5081197;27;20222;-83
2024/01/16 01:09:33;;;;;;;7.27;3.33;;;-0.90;99.90;;;;;;5074645;28;20747;-83
2024/01/16 01:12:00;;;;;;;5.57;3.57;;;-0.90;99.90;;;;;;5072872;28;20218;-82
2024/01/16 01:14:29;;;;;;;6.97;4.60;;;-0.80;99.90;;;;;;5071093;28;20331;-82
2024/01/16 01:16:56;;;;;;;6.30;4.47;;;-0.80;99.90;;;;;;5084171;28;20690;-83
2024/01/16 01:19:23;;;;;;;9.20;4.60;;;-0.80;99.90;;;;;;5082855;28;20281;-83
2024/01/16 01:21:50;;;;;;;7.33;4.90;;;-0.80;99.90;;;;;;5076455;28;20229;-83
2024/01/16 01:24:17;;;;;;;6.03;3.80;;;-0.80;99.90;;;;;;5068533;28;20226;-83
2024/01/16 01:26:44;;;;;;;4.87;3.93;;;-0.80;99.90;;;;;;5083212;28;20224;-83
2024/01/16 01:29:11;;;;;;;7.40;3.63;;;-0.80;99.90;;;;;;5072896;28;20216;-83
2024/01/16 01:31:39;;;;;;;6.47;3.50;;;-0.90;99.90;;;;;;5083797;28;20222;-82
2024/01/16 01:34:07;;;;;;;5.10;3.30;;;-0.90;99.90;;;;;;5076323;27;20225;-82
2024/01/16 01:36:34;;;;;;;4.10;3.50;;;-0.90;99.90;;;;;;5121001;27;20220;-83
2024/01/16 01:39:00;;;;;;;4.27;3.00;;;-0.90;99.90;;;;;;5076177;28;20225;-84
2024/01/16 01:41:27;;;;;;;6.43;3.60;;;-0.90;99.90;;;;;;5080563;27;20234;-84
2024/01/16 01:43:54;;;;;;;5.07;3.23;;;-1.00;99.90;;;;;;5091362;27;20321;-84
2024/01/16 01:46:21;;;;;;;3.97;2.97;;;-1.00;99.90;;;;;;5076661;27;20222;-83
2024/01/16 01:48:50;;;;;;;7.03;3.37;;;-1.00;99.90;;;;;;5094150;28;20233;-83
2024/01/16 01:51:19;;;;;;;3.63;3.10;;;-1.10;99.90;;;;;;5079651;28;20279;-82
2024/01/16 01:53:50;;;;;;;6.20;3.90;;;-1.10;99.90;;;;;;5081526;28;20317;-82
2024/01/16 01:56:18;;;;;;;5.43;2.90;;;-1.10;99.90;;;;;;5073569;28;20262;-82
2024/01/16 01:58:47;;;;;;;5.77;4.17;;;-1.10;99.90;;;;;;5112549;27;20246;-82
2024/01/16 02:01:16;;;;;;;5.97;3.60;;;-1.10;99.90;;;;;;5082450;28;20225;-82
2024/01/16 02:03:45;;;;;;;3.60;3.20;;;-1.10;99.90;;;;;;5085206;28;20282;-82
2024/01/16 02:06:15;;;;;;;5.40;3.60;;;-1.10;99.90;;;;;;5085259;28;20219;-83
2024/01/16 02:08:41;;;;;;;6.87;3.67;;;-1.10;99.90;;;;;;5081341;27;20851;-83
2024/01/16 02:11:09;;;;;;;4.43;3.57;;;-1.10;99.90;;;;;;5087012;28;20951;-83
2024/01/16 02:13:36;;;;;;;6.10;4.40;;;-1.10;99.90;;;;;;5092363;28;20231;-83
2024/01/16 02:16:05;;;;;;;6.43;4.00;;;-1.10;99.90;;;;;;5091239;27;20700;-83
2024/01/16 02:18:32;;;;;;;6.40;4.27;;;-1.10;99.90;;;;;;5081604;28;20253;-83
2024/01/16 02:21:01;;;;;;;5.20;3.93;;;-1.10;99.90;;;;;;5080945;28;20947;-83
2024/01/16 02:23:31;;;;;;;6.63;4.03;;;-1.10;99.90;;;;;;5083236;27;20233;-81
2024/01/16 02:25:58;;;;;;;5.33;3.93;;;-1.10;99.90;;;;;;5123544;27;20666;-82
2024/01/16 02:28:25;;;;;;;6.03;4.13;;;-1.10;99.90;;;;;;5093478;28;20257;-82
2024/01/16 02:30:52;;;;;;;7.63;4.30;;;-1.20;99.90;;;;;;5081535;28;20222;-83
2024/01/16 02:33:19;;;;;;;7.70;4.37;;;-1.20;99.90;;;;;;5079281;28;20229;-84
2024/01/16 02:35:45;;;;;;;6.73;4.30;;;-1.20;99.90;;;;;;5085716;28;20228;-83
2024/01/16 02:38:45;;;;;;;6.20;3.80;;;-1.20;99.90;;;;;;5098562;28;20225;-82
2024/01/16 02:41:14;;;;;;;10.37;4.67;;;-1.30;99.90;;;;;;5108499;27;20229;-84
2024/01/16 02:43:41;;;;;;;5.57;4.20;;;-1.30;99.90;;;;;;5097796;28;20235;-83
2024/01/16 02:46:08;;;;;;;8.60;4.90;;;-1.40;99.90;;;;;;5097563;27;20348;-83
2024/01/16 02:48:35;;;;;;;7.00;4.27;;;-1.40;99.90;;;;;;5084239;27;20300;-83
2024/01/16 02:51:03;;;;;;;7.03;4.87;;;-1.40;99.90;;;;;;5074946;28;20233;-83
2024/01/16 02:53:29;;;;;;;6.73;4.67;;;-1.40;99.90;;;;;;5085283;28;20233;-83
2024/01/16 02:55:59;;;;;;;6.67;5.03;;;-1.30;99.90;;;;;;5097323;27;21013;-83
2024/01/16 02:58:26;;;;;;;6.70;4.90;;;-1.30;99.90;;;;;;5121606;27;20222;-84
2024/01/16 03:00:52;;;;;;;22.03;5.20;;;-1.30;99.90;;;;;;5084713;28;20222;-84
2024/01/16 03:03:19;;;;;;;7.13;4.60;;;-1.30;99.90;;;;;;5069625;28;20233;-83
2024/01/16 03:05:47;;;;;;;66.93;8.47;;;-1.30;99.90;;;;;;5076902;27;20293;-83
2024/01/16 03:08:14;;;;;;;9.07;4.97;;;-1.30;99.90;;;;;;5077855;27;20233;-83
2024/01/16 03:10:42;;;;;;;7.37;5.23;;;-1.30;99.90;;;;;;5105322;27;20218;-84
2024/01/16 03:13:10;;;;;;;7.93;5.17;;;-1.30;99.90;;;;;;5076329;28;20256;-83
2024/01/16 03:15:37;;;;;;;16.30;5.40;;;-1.30;99.90;;;;;;5071069;28;20247;-83
2024/01/16 03:18:04;;;;;;;10.30;4.93;;;-1.40;99.90;;;;;;5069300;28;20295;-84
2024/01/16 03:20:31;;;;;;;6.03;4.90;;;-1.40;99.90;;;;;;5075759;28;20227;-84
2024/01/16 03:22:58;;;;;;;9.13;5.67;;;-1.40;99.90;;;;;;5072075;28;20218;-84
2024/01/16 03:25:25;;;;;;;9.03;5.60;;;-1.50;99.90;;;;;;5068912;27;20230;-84
2024/01/16 03:27:51;;;;;;;7.90;5.90;;;-1.50;99.90;;;;;;5074772;27;20256;-84
2024/01/16 03:30:20;;;;;;;9.40;6.47;;;-1.50;99.90;;;;;;5103376;27;20226;-83
2024/01/16 03:32:46;;;;;;;10.97;5.83;;;-1.60;99.90;;;;;;5072587;28;20228;-83
2024/01/16 03:35:13;;;;;;;11.23;6.93;;;-1.60;99.90;;;;;;5078632;27;20816;-83
2024/01/16 03:37:40;;;;;;;13.90;8.30;;;-1.60;99.90;;;;;;5094643;28;20817;-82
2024/01/16 03:40:09;;;;;;;13.23;8.70;;;-1.60;99.90;;;;;;5092060;27;20225;-83
2024/01/16 03:42:35;;;;;;;11.13;8.83;;;-1.70;99.90;;;;;;5099938;27;20221;-83
2024/01/16 03:45:02;;;;;;;15.83;9.63;;;-1.70;99.90;;;;;;5085743;28;20917;-83
2024/01/16 03:47:30;;;;;;;15.17;10.27;;;-1.70;99.90;;;;;;5091512;28;20589;-83
2024/01/16 03:49:57;;;;;;;16.23;10.23;;;-1.70;99.90;;;;;;5095883;27;20891;-83
2024/01/16 03:52:24;;;;;;;15.90;10.93;;;-1.60;99.90;;;;;;5095433;27;20312;-83
2024/01/16 03:54:50;;;;;;;17.17;10.70;;;-1.60;99.90;;;;;;5094278;27;20257;-83
2024/01/16 03:57:17;;;;;;;23.23;11.67;;;-1.60;99.90;;;;;;5090981;27;20229;-83
2024/01/16 03:59:44;;;;;;;13.50;10.27;;;-1.60;99.90;;;;;;5093430;28;20229;-83
2024/01/16 04:02:11;;;;;;;14.33;10.13;;;-1.60;99.90;;;;;;5089013;27;20234;-84
2024/01/16 04:04:39;;;;;;;16.50;10.47;;;-1.60;99.90;;;;;;5089448;28;20293;-82
2024/01/16 04:07:05;;;;;;;12.70;10.20;;;-1.60;99.90;;;;;;5093418;27;20813;-85
2024/01/16 04:09:32;;;;;;;13.93;9.30;;;-1.60;99.90;;;;;;5093557;27;20229;-84
2024/01/16 04:11:59;;;;;;;16.33;11.10;;;-1.60;99.90;;;;;;5088544;28;20255;-83
2024/01/16 04:14:25;;;;;;;15.57;10.10;;;-1.50;99.90;;;;;;5099621;27;20348;-82
2024/01/16 04:16:52;;;;;;;12.63;9.47;;;-1.50;99.90;;;;;;5099925;28;20224;-83
2024/01/16 04:19:19;;;;;;;15.40;10.57;;;-1.50;99.90;;;;;;5095539;27;20316;-83
2024/01/16 04:21:47;;;;;;;15.43;10.57;;;-1.50;99.90;;;;;;5091534;28;20278;-82
2024/01/16 04:24:14;;;;;;;15.60;10.90;;;-1.60;99.90;;;;;;5094908;27;20225;-83
2024/01/16 04:26:40;;;;;;;13.37;9.73;;;-1.60;99.90;;;;;;5096296;28;20695;-84
2024/01/16 04:29:08;;;;;;;13.50;9.93;;;-1.70;99.90;;;;;;5097101;27;20228;-84
2024/01/16 04:31:41;;;;;;;47.60;12.23;;;-1.80;99.90;;;;;;5094291;28;20259;-85
2024/01/16 04:34:08;;;;;;;18.47;11.30;;;-1.80;99.90;;;;;;5089428;28;20233;-82
2024/01/16 04:36:35;;;;;;;36.30;11.20;;;-1.90;99.90;;;;;;5101857;27;20894;-83
2024/01/16 04:39:04;;;;;;;17.13;10.57;;;-1.90;99.90;;;;;;5099166;28;20230;-82
2024/01/16 04:41:31;;;;;;;17.87;10.80;;;-2.00;99.90;;;;;;5097350;27;20234;-82
2024/01/16 04:43:58;;;;;;;14.57;10.50;;;-2.00;99.90;;;;;;5094366;27;20230;-82
2024/01/16 04:46:25;;;;;;;15.20;10.10;;;-2.00;99.90;;;;;;5078011;28;20786;-82
2024/01/16 04:48:52;;;;;;;15.90;9.97;;;-1.90;99.90;;;;;;5074192;28;20226;-82
2024/01/16 04:51:19;;;;;;;17.73;10.77;;;-1.90;99.90;;;;;;5078399;27;20944;-82
2024/01/16 04:53:46;;;;;;;17.67;10.63;;;-1.80;99.90;;;;;;5072456;28;20213;-82
2024/01/16 04:56:15;;;;;;;15.60;10.23;;;-1.80;99.90;;;;;;5070906;28;20259;-83
2024/01/16 04:58:42;;;;;;;15.77;10.27;;;-1.70;99.90;;;;;;5073382;28;20238;-81
2024/01/16 05:01:09;;;;;;;14.47;10.13;;;-1.60;99.90;;;;;;5107308;27;20271;-82
2024/01/16 05:03:36;;;;;;;11.60;9.10;;;-1.60;99.90;;;;;;5089778;28;20229;-81
2024/01/16 05:06:04;;;;;;;14.40;8.73;;;-1.60;99.90;;;;;;5089392;28;20961;-82
2024/01/16 05:08:31;;;;;;;14.63;10.17;;;-1.60;99.90;;;;;;5076787;28;20228;-81
2024/01/16 05:10:59;;;;;;;12.43;9.70;;;-1.50;99.90;;;;;;5082301;28;20710;-82
2024/01/16 05:13:27;;;;;;;21.23;9.60;;;-1.50;99.90;;;;;;5076074;27;20440;-82
2024/01/16 05:15:54;;;;;;;11.73;8.47;;;-1.50;99.90;;;;;;5083525;28;20235;-82
2024/01/16 05:18:21;;;;;;;13.60;8.03;;;-1.40;99.90;;;;;;5074455;27;20225;-82
2024/01/16 05:20:49;;;;;;;12.40;8.57;;;-1.40;99.90;;;;;;5074223;28;20563;-82
2024/01/16 05:23:17;;;;;;;14.23;9.10;;;-1.50;99.90;;;;;;5069569;27;20225;-82
2024/01/16 05:25:44;;;;;;;11.57;9.00;;;-1.50;99.90;;;;;;5069477;28;20221;-82
2024/01/16 05:28:11;;;;;;;13.87;9.17;;;-1.50;99.90;;;;;;5106667;27;20223;-82
2024/01/16 05:30:39;;;;;;;30.77;9.53;;;-1.50;99.90;;;;;;5087591;28;20237;-81
2024/01/16 05:33:07;;;;;;;18.33;9.17;;;-1.50;99.90;;;;;;5093029;28;20228;-81
2024/01/16 05:35:34;;;;;;;22.23;9.33;;;-1.50;99.90;;;;;;5071340;28;20310;-80
2024/01/16 05:38:01;;;;;;;36.30;9.83;;;-1.40;99.90;;;;;;5088035;27;20224;-82
2024/01/16 05:40:27;;;;;;;52.63;10.13;;;-1.40;99.90;;;;;;5072303;27;20416;-82
2024/01/16 05:42:56;;;;;;;16.27;7.80;;;-1.40;99.90;;;;;;5082320;28;20928;-82
2024/01/16 05:45:23;;;;;;;179.23;17.43;;;-1.30;99.90;;;;;;5074081;27;20218;-82
2024/01/16 05:47:51;;;;;;;14.40;7.83;;;-1.30;99.90;;;;;;5100788;28;20282;-83
2024/01/16 05:50:18;;;;;;;22.43;7.73;;;-1.30;99.90;;;;;;5085234;27;20254;-83
2024/01/16 05:52:45;;;;;;;15.43;7.23;;;-1.30;99.90;;;;;;5079673;28;20282;-82
2024/01/16 05:55:11;;;;;;;88.10;11.63;;;-1.20;99.90;;;;;;5117433;27;20342;-83
2024/01/16 05:57:37;;;;;;;16.53;7.67;;;-1.20;99.90;;;;;;5080359;28;21099;-83
2024/01/16 06:00:05;;;;;;;88.90;10.73;;;-1.10;99.90;;;;;;5082152;28;20322;-83
2024/01/16 06:02:33;;;;;;;10.93;6.60;;;-1.10;99.90;;;;;;5093584;28;20242;-84
2024/01/16 06:05:03;;;;;;;23.97;7.20;;;-1.10;99.90;;;;;;5077394;28;20311;-83
2024/01/16 06:07:30;;;;;;;8.87;5.80;;;-1.00;99.90;;;;;;5082333;28;20283;-84
2024/01/16 06:09:57;;;;;;;24.67;6.73;;;-1.00;99.90;;;;;;5079585;28;20253;-82
2024/01/16 06:12:23;;;;;;;6.20;5.17;;;-0.90;99.90;;;;;;5078387;27;20980;-83
2024/01/16 06:14:50;;;;;;;9.10;5.23;;;-0.90;99.90;;;;;;5080942;28;20223;-83
2024/01/16 06:17:17;;;;;;;7.80;4.30;;;-0.90;99.90;;;;;;5077162;28;20320;-83
2024/01/16 06:19:44;;;;;;;4.63;3.83;;;-0.90;99.90;;;;;;5071881;27;20250;-83
2024/01/16 06:22:12;;;;;;;5.97;3.30;;;-0.90;99.90;;;;;;5083826;27;20525;-83
2024/01/16 06:24:38;;;;;;;4.27;3.40;;;-0.80;99.90;;;;;;5075944;28;20751;-83
2024/01/16 06:27:07;;;;;;;3.57;3.23;;;-0.90;99.90;;;;;;5078734;28;20226;-83
2024/01/16 06:29:33;;;;;;;7.90;3.77;;;-0.80;99.90;;;;;;5077569;28;20233;-83
2024/01/16 06:32:00;;;;;;;54.53;5.83;;;-0.80;99.90;;;;;;5091004;28;20329;-83
2024/01/16 06:34:27;;;;;;;4.70;2.70;;;-0.80;99.90;;;;;;5067228;28;20332;-84
2024/01/16 06:36:54;;;;;;;3.93;2.57;;;-0.80;99.90;;;;;;5110786;27;20728;-82
2024/01/16 06:39:22;;;;;;;8.83;2.63;;;-0.80;99.90;;;;;;5083514;27;20243;-83
2024/01/16 06:41:49;;;;;;;5.13;2.37;;;-0.80;99.90;;;;;;5079160;28;20283;-82
2024/01/16 06:44:16;;;;;;;3.90;2.23;;;-0.80;99.90;;;;;;5105137;27;20225;-83
2024/01/16 06:46:42;;;;;;;7.03;2.80;;;-0.80;99.90;;;;;;5076497;28;20333;-82
2024/01/16 06:49:09;;;;;;;4.20;2.37;;;-0.80;99.90;;;;;;5093785;28;20276;-83
2024/01/16 06:51:36;;;;;;;7.93;2.23;;;-0.70;99.90;;;;;;5082524;28;20314;-83
2024/01/16 06:54:03;;;;;;;7.27;2.50;;;-0.70;99.90;;;;;;5079299;28;20249;-83
2024/01/16 06:56:32;;;;;;;6.70;2.37;;;-0.70;99.90;;;;;;5109398;27;20219;-83
2024/01/16 06:58:59;;;;;;;6.33;2.57;;;-0.70;99.90;;;;;;5106536;27;20225;-83
2024/01/16 07:01:28;;;;;;;7.07;2.60;;;-0.70;99.90;;;;;;5082299;27;20226;-82
2024/01/16 07:03:54;;;;;;;63.20;5.40;;;-0.70;99.90;;;;;;5065314;28;20230;-82
2024/01/16 07:06:21;;;;;;;4.40;2.73;;;-0.70;99.90;;;;;;5081870;28;20219;-83
2024/01/16 07:08:48;;;;;;;25.97;3.87;;;-0.60;99.90;;;;;;5102395;27;20301;-82
2024/01/16 07:11:15;;;;;;;20.47;3.37;;;-0.60;99.90;;;;;;5074189;28;20231;-83
2024/01/16 07:13:44;;;;;;;14.03;3.33;;;-0.60;99.90;;;;;;5080731;27;20306;-82
2024/01/16 07:16:11;;;;;;;16.77;3.93;;;-0.60;99.90;;;;;;5078081;28;20298;-83
2024/01/16 07:18:38;;;;;;;6.17;2.80;;;-0.60;99.90;;;;;;5079787;28;20215;-83
2024/01/16 07:21:05;;;;;;;11.47;3.13;;;-0.60;99.90;;;;;;5086939;28;20717;-83
2024/01/16 07:23:32;;;;;;;26.73;4.23;;;-0.60;99.90;;;;;;5081862;28;20280;-83
2024/01/16 07:25:59;;;;;;;7.43;2.80;;;-0.60;99.90;;;;;;5085424;27;20247;-83
2024/01/16 07:28:25;;;;;;;7.20;2.87;;;-0.60;99.90;;;;;;5077991;28;20300;-83
2024/01/16 07:30:55;;;;;;;25.40;3.20;;;-0.60;99.90;;;;;;5080544;28;20314;-83
2024/01/16 07:33:22;;;;;;;7.13;3.03;;;-0.60;99.90;;;;;;5103801;27;20264;-83
2024/01/16 07:35:48;;;;;;;9.07;3.07;;;-0.60;99.90;;;;;;5073241;28;20887;-83
2024/01/16 07:38:15;;;;;;;23.90;3.83;;;-0.60;99.90;;;;;;5089997;28;20688;-83
2024/01/16 07:40:42;;;;;;;11.77;3.40;;;-0.70;99.90;;;;;;5083561;28;20229;-83
2024/01/16 07:43:09;;;;;;;5.47;3.73;;;-0.70;99.90;;;;;;5080038;28;20708;-83
2024/01/16 07:45:35;;;;;;;28.97;4.70;;;-0.70;99.90;;;;;;5116936;27;20610;-83
2024/01/16 07:48:04;;;;;;;4.47;3.00;;;-0.70;99.90;;;;;;5095253;28;20223;-83
2024/01/16 07:50:31;;;;;;;11.50;3.83;;;-0.70;99.90;;;;;;5092821;28;20241;-83
2024/01/16 07:52:58;;;;;;;9.20;3.80;;;-0.70;99.90;;;;;;5112763;27;20215;-83
2024/01/16 07:55:24;;;;;;;6.03;3.90;;;-0.70;99.90;;;;;;5093442;28;20235;-82
2024/01/16 07:57:51;;;;;;;17.40;4.23;;;-0.70;99.90;;;;;;5085939;28;20743;-83
2024/01/16 08:00:18;;;;;;;5.80;3.90;;;-0.60;99.90;;;;;;5076411;28;20269;-83
2024/01/16 08:02:45;;;;;;;72.80;7.83;;;-0.60;99.90;;;;;;5085202;28;20226;-83
2024/01/16 08:05:13;;;;;;;8.63;4.60;;;-0.60;99.90;;;;;;5112225;27;20310;-83
2024/01/16 08:07:42;;;;;;;35.60;6.30;;;-0.60;99.90;;;;;;5093968;27;20296;-83
2024/01/16 08:10:10;;;;;;;28.80;5.80;;;-0.60;99.90;;;;;;5077773;28;20230;-83
2024/01/16 08:12:38;;;;;;;9.33;4.93;;;-0.50;99.90;;;;;;5122874;27;20232;-82
2024/01/16 08:15:07;;;;;;;10.93;5.53;;;-0.50;99.90;;;;;;5081598;27;20220;-82
2024/01/16 08:17:34;;;;;;;8.53;5.50;;;-0.50;99.90;;;;;;5078033;27;20302;-82
2024/01/16 08:20:00;;;;;;;8.30;6.00;;;-0.50;99.90;;;;;;5078954;28;20722;-83
2024/01/16 08:22:28;;;;;;;9.70;6.50;;;-0.50;99.90;;;;;;5075414;28;20240;-83
2024/01/16 08:24:56;;;;;;;8.53;5.97;;;-0.50;99.90;;;;;;5073012;28;20223;-83
2024/01/16 08:27:22;;;;;;;11.60;6.97;;;-0.50;99.90;;;;;;5072791;27;20788;-83
2024/01/16 08:29:50;;;;;;;10.47;6.87;;;-0.50;99.90;;;;;;5084950;28;20232;-83
2024/01/16 08:32:17;;;;;;;14.60;6.47;;;-0.40;99.90;;;;;;5077738;27;20223;-82
2024/01/16 08:34:43;;;;;;;8.40;6.43;;;-0.40;99.90;;;;;;5083446;28;20246;-83
2024/01/16 08:37:10;;;;;;;10.20;5.57;;;-0.30;99.90;;;;;;5110922;27;20241;-83
2024/01/16 08:39:38;;;;;;;7.07;4.73;;;-0.30;99.90;;;;;;5118520;27;20593;-83
2024/01/16 08:42:05;;;;;;;10.93;5.37;;;-0.30;99.90;;;;;;5085573;28;20226;-83
2024/01/16 08:44:32;;;;;;;10.13;4.83;;;-0.20;99.90;;;;;;5106093;27;20233;-83
2024/01/16 08:47:00;;;;;;;6.03;4.27;;;-0.20;99.90;;;;;;5087094;28;21057;-82
2024/01/16 08:49:27;;;;;;;8.10;3.73;;;-0.20;99.90;;;;;;5076125;28;20309;-83
2024/01/16 08:51:54;;;;;;;9.27;4.67;;;-0.20;99.90;;;;;;5127397;27;20231;-83
2024/01/16 08:54:22;;;;;;;183.90;15.23;;;-0.20;99.90;;;;;;5084697;28;20283;-83
2024/01/16 08:56:51;;;;;;;13.27;4.47;;;-0.20;99.90;;;;;;5081621;28;20222;-82
2024/01/16 08:59:17;;;;;;;8.57;4.13;;;-0.10;99.90;;;;;;5095216;28;20511;-83
2024/01/16 09:01:44;;;;;;;10.40;4.73;;;-0.10;99.90;;;;;;5066946;28;20223;-83
2024/01/16 09:04:11;;;;;;;9.20;5.13;;;-0.10;99.90;;;;;;5073412;28;20251;-82
2024/01/16 09:06:38;;;;;;;41.33;7.43;;;-0.10;99.90;;;;;;5079566;28;20236;-83
2024/01/16 09:09:05;;;;;;;9.63;5.20;;;-0.10;99.90;;;;;;5078276;27;20219;-83
2024/01/16 09:11:32;;;;;;;9.73;5.67;;;-0.10;99.90;;;;;;5083642;28;20230;-83
2024/01/16 09:14:00;;;;;;;10.60;6.07;;;-0.10;99.90;;;;;;5081554;28;20315;-83
2024/01/16 09:16:27;;;;;;;8.07;5.47;;;-0.10;99.90;;;;;;5075152;28;20238;-79
2024/01/16 09:18:54;;;;;;;11.73;6.10;;;-0.10;99.90;;;;;;5084425;28;20597;-83
2024/01/16 09:21:21;;;;;;;12.03;6.57;;;-0.10;99.90;;;;;;5081930;28;20222;-83
2024/01/16 09:23:48;;;;;;;9.07;5.80;;;-0.10;99.90;;;;;;5078705;28;20233;-83
2024/01/16 09:26:14;;;;;;;10.57;5.73;;;0.00;99.90;;;;;;5097276;28;20310;-83
2024/01/16 09:28:41;;;;;;;13.57;6.13;;;0.00;99.90;;;;;;5105444;28;20323;-83
2024/01/16 09:31:09;;;;;;;9.87;6.47;;;0.00;99.90;;;;;;5083009;28;20253;-83
2024/01/16 09:33:36;;;;;;;8.50;6.00;;;0.00;99.90;;;;;;5084566;28;20237;-83
2024/01/16 09:36:03;;;;;;;9.00;4.80;;;0.00;99.90;;;;;;5103420;28;20235;-83
2024/01/16 09:38:31;;;;;;;13.60;5.07;;;0.10;99.90;;;;;;5086196;28;20230;-83
2024/01/16 09:40:59;;;;;;;7.57;4.23;;;0.00;99.90;;;;;;5098256;28;20226;-83
2024/01/16 09:43:27;;;;;;;7.20;4.40;;;0.00;99.90;;;;;;5082350;28;20258;-84
2024/01/16 09:45:56;;;;;;;6.90;4.20;;;0.10;99.90;;;;;;5085356;28;20222;-83
2024/01/16 09:48:25;;;;;;;9.77;4.60;;;0.10;99.90;;;;;;5106819;27;21083;-84
2024/01/16 09:50:52;;;;;;;6.50;4.20;;;0.10;99.90;;;;;;5079019;28;20219;-83
2024/01/16 09:53:19;;;;;;;8.83;4.23;;;0.10;99.90;;;;;;5083841;28;20230;-83
2024/01/16 09:55:47;;;;;;;8.17;3.67;;;0.10;99.90;;;;;;5088788;27;20593;-82
2024/01/16 09:58:14;;;;;;;5.73;3.13;;;0.10;99.90;;;;;;5088273;27;20226;-83
2024/01/16 10:00:44;;;;;;;6.43;3.17;;;0.20;99.90;;;;;;5096359;27;20272;-83
2024/01/16 10:03:15;;;;;;;8.07;2.93;;;0.20;99.90;;;;;;5110908;27;20227;-83
2024/01/16 10:05:43;;;;;;;8.17;3.10;;;0.20;99.90;;;;;;5101061;28;20303;-83
2024/01/16 10:08:10;;;;;;;6.47;2.60;;;0.20;99.90;;;;;;5109027;28;20819;-83
2024/01/16 10:10:37;;;;;;;7.30;2.90;;;0.20;99.90;;;;;;5114001;27;20307;-83
2024/01/16 10:13:05;;;;;;;6.57;2.80;;;0.30;99.90;;;;;;5095331;28;20287;-83
2024/01/16 10:15:33;;;;;;;6.57;3.33;;;0.30;99.90;;;;;;5098281;28;20226;-83
2024/01/16 10:18:00;;;;;;;6.37;3.00;;;0.40;99.90;;;;;;5098501;28;20768;-83
2024/01/16 10:20:33;;;;;;;6.97;3.37;;;0.40;99.90;;;;;;5089114;28;20607;-83
2024/01/16 10:23:03;;;;;;;7.53;2.90;;;0.40;99.90;;;;;;5128434;27;20314;-83
2024/01/16 10:25:30;;;;;;;5.90;2.60;;;0.50;99.90;;;;;;5103200;28;20309;-83
2024/01/16 10:28:04;;;;;;;7.53;2.57;;;0.50;99.90;;;;;;5106875;28;20225;-84
2024/01/16 10:30:32;;;;;;;7.17;2.43;;;0.50;99.90;;;;;;5105660;28;20230;-83
2024/01/16 10:33:14;;;;;;;4.60;1.93;;;0.50;99.90;;;;;;5118576;27;20725;-84
2024/01/16 10:35:41;;;;;;;3.83;1.83;;;0.60;99.90;;;;;;5087433;28;20244;-83
2024/01/16 10:38:09;;;;;;;3.50;1.90;;;0.60;99.90;;;;;;5084563;27;20259;-84
2024/01/16 10:40:36;;;;;;;3.03;1.77;;;0.50;99.90;;;;;;5082534;28;20280;-84
2024/01/16 10:43:04;;;;;;;7.07;2.27;;;0.50;99.90;;;;;;5095340;27;20330;-85
2024/01/16 10:45:31;;;;;;;7.77;2.00;;;0.50;99.90;;;;;;5094844;28;20721;-84
2024/01/16 10:48:05;;;;;;;4.40;1.90;;;0.60;99.90;;;;;;5102499;28;20292;-85
2024/01/16 10:50:32;;;;;;;9.70;2.07;;;0.60;99.90;;;;;;5081223;28;20439;-85
2024/01/16 10:53:01;;;;;;;3.80;1.80;;;0.60;99.90;;;;;;5090431;28;20262;-85
2024/01/16 10:55:30;;;;;;;5.67;2.47;;;0.60;99.90;;;;;;5101062;27;20228;-85
2024/01/16 10:57:58;;;;;;;5.07;1.70;;;0.70;99.90;;;;;;5076813;28;20228;-85
2024/01/16 11:00:25;;;;;;;4.30;2.13;;;0.60;99.90;;;;;;5085958;27;20587;-85
2024/01/16 11:03:00;;;;;;;4.30;1.93;;;0.70;99.90;;;;;;5069471;28;20321;-86
2024/01/16 11:05:30;;;;;;;4.50;1.70;;;0.70;99.90;;;;;;5077278;28;20742;-84
2024/01/16 11:07:59;;;;;;;6.80;2.00;;;0.70;99.90;;;;;;5078285;28;20219;-85
2024/01/16 11:10:27;;;;;;;8.33;2.23;;;0.70;99.90;;;;;;5083455;28;20244;-86
2024/01/16 11:13:00;;;;;;;7.77;2.10;;;0.80;99.90;;;;;;5099504;28;20226;-85
2024/01/16 11:15:28;;;;;;;4.93;1.80;;;0.80;99.90;;;;;;5078544;27;20227;-85
2024/01/16 11:17:56;;;;;;;5.07;1.77;;;0.80;99.90;;;;;;5074819;28;20284;-85
2024/01/16 11:20:23;;;;;;;6.53;2.10;;;0.90;99.90;;;;;;5090463;28;20226;-85
2024/01/16 11:22:54;;;;;;;4.20;1.40;;;0.90;99.90;;;;;;5085785;28;20220;-85
2024/01/16 11:25:21;;;;;;;3.30;1.70;;;0.90;99.90;;;;;;5069322;28;20220;-85
2024/01/16 11:27:50;;;;;;;4.47;1.57;;;0.90;99.90;;;;;;5086177;28;20226;-84
2024/01/16 11:30:32;;;;;;;6.33;1.60;;;1.00;99.90;;;;;;5085661;28;20707;-84
2024/01/16 11:32:59;;;;;;;4.67;2.00;;;1.00;99.90;;;;;;5090765;28;20231;-84
2024/01/16 11:35:34;;;;;;;6.37;1.70;;;1.00;99.90;;;;;;5085489;28;20299;-84
2024/01/16 11:38:05;;;;;;;5.33;1.80;;;1.00;99.90;;;;;;5080299;28;20218;-85
2024/01/16 11:40:36;;;;;;;7.20;1.80;;;1.10;99.90;;;;;;5080383;28;20234;-83
2024/01/16 11:43:36;;;;;;;7.60;1.87;;;1.10;99.90;;;;;;5100434;28;20224;-84
2024/01/16 11:46:07;;;;;;;7.10;1.90;;;1.10;99.90;;;;;;5077323;28;20227;-84
2024/01/16 11:48:34;;;;;;;6.77;1.77;;;1.10;99.90;;;;;;5085965;28;20220;-84
2024/01/16 11:51:01;;;;;;;4.77;2.00;;;1.10;99.90;;;;;;5096140;28;20229;-84
2024/01/16 11:53:39;;;;;;;6.27;1.93;;;1.10;99.90;;;;;;5102222;27;20238;-83
2024/01/16 11:56:43;;;;;;;6.73;1.83;;;1.20;99.90;;;;;;5095365;28;20223;-84
2024/01/16 11:59:30;;;;;;;5.50;1.60;;;1.20;99.90;;;;;;5100250;27;20231;-85
2024/01/16 12:02:00;;;;;;;7.30;1.80;;;1.20;99.90;;;;;;5079437;28;20230;-84
2024/01/16 12:04:27;;;;;;;7.80;2.10;;;1.20;99.90;;;;;;5085745;28;20224;-84
2024/01/16 12:07:01;;;;;;;5.63;1.73;;;1.20;99.90;;;;;;5102317;28;20305;-84
2024/01/16 12:09:28;;;;;;;7.70;2.40;;;1.20;99.90;;;;;;5092382;28;20220;-83
2024/01/16 12:12:00;;;;;;;4.87;2.10;;;1.20;99.90;;;;;;5086053;28;20242;-84
2024/01/16 12:14:28;;;;;;;6.80;1.80;;;1.20;99.90;;;;;;5085042;27;20478;-84
2024/01/16 12:17:09;;;;;;;9.80;2.30;;;1.20;99.90;;;;;;5116762;27;20221;-84
2024/01/16 12:19:36;;;;;;;7.90;2.10;;;1.20;99.90;;;;;;5082607;28;20229;-84
2024/01/16 12:22:03;;;;;;;4.60;2.07;;;1.10;99.90;;;;;;5080708;27;20250;-84
2024/01/16 12:24:30;;;;;;;7.37;2.27;;;1.10;99.90;;;;;;5096123;28;20320;-84
2024/01/16 12:26:58;;;;;;;12.83;2.40;;;1.10;99.90;;;;;;5082733;28;20213;-85
2024/01/16 12:29:25;;;;;;;7.57;2.57;;;1.10;99.90;;;;;;5114428;27;20234;-86
2024/01/16 12:32:07;;;;;;;6.10;2.67;;;1.10;99.90;;;;;;5129198;27;20228;-85
2024/01/16 12:34:35;;;;;;;8.77;2.50;;;1.10;99.90;;;;;;5082321;28;20223;-85
2024/01/16 12:37:11;;;;;;;7.17;2.57;;;1.20;99.90;;;;;;5080430;28;20640;-85
2024/01/16 12:39:39;;;;;;;11.80;3.63;;;1.30;99.90;;;;;;5083066;28;20588;-85
2024/01/16 12:42:06;;;;;;;7.83;2.97;;;1.30;99.90;;;;;;5077170;28;20234;-85
2024/01/16 12:44:33;;;;;;;5.97;3.00;;;1.40;99.90;;;;;;5097689;27;20231;-83
2024/01/16 12:47:01;;;;;;;9.77;2.87;;;1.40;99.90;;;;;;5106948;27;20310;-84
2024/01/16 12:49:30;;;;;;;9.17;3.47;;;1.50;99.90;;;;;;5073451;28;20631;-83